createdAt,value
2018-05-17T00:00:06.823Z,4.00
2018-05-17T00:01:12.333Z,4.00
2018-05-17T00:02:17.849Z,4.00
2018-05-17T00:03:23.366Z,4.00
2018-05-17T00:04:28.876Z,4.00
2018-05-17T00:05:34.397Z,4.00
2018-05-17T00:06:39.905Z,4.00
2018-05-17T00:07:45.422Z,8.00
2018-05-17T00:08:50.929Z,8.00
2018-05-17T00:09:56.442Z,8.00
2018-05-17T00:11:01.955Z,4.00
2018-05-17T00:12:07.499Z,8.00
2018-05-17T00:13:12.984Z,4.00
2018-05-17T00:14:18.633Z,8.00
2018-05-17T00:15:24.005Z,4.00
2018-05-17T00:16:29.523Z,4.00
2018-05-17T00:17:35.131Z,8.00
2018-05-17T00:18:40.552Z,8.00
2018-05-17T00:19:46.116Z,8.00
2018-05-17T00:20:51.574Z,4.00
2018-05-17T00:21:57.180Z,8.00
2018-05-17T00:23:02.610Z,8.00
2018-05-17T00:24:08.108Z,8.00
2018-05-17T00:25:13.627Z,8.00
2018-05-17T00:26:19.138Z,4.00
2018-05-17T00:27:24.650Z,4.00
2018-05-17T00:28:30.167Z,4.00
2018-05-17T00:29:35.676Z,8.00
2018-05-17T00:30:41.189Z,8.00
2018-05-17T00:31:46.702Z,4.00
2018-05-17T00:32:52.214Z,8.00
2018-05-17T00:33:57.731Z,8.00
2018-05-17T00:35:03.243Z,8.00
2018-05-17T00:36:08.777Z,4.00
2018-05-17T00:37:14.268Z,4.00
2018-05-17T00:38:19.789Z,4.00
2018-05-17T00:39:25.299Z,4.00
2018-05-17T00:40:30.808Z,4.00
2018-05-17T00:41:36.325Z,4.00
2018-05-17T00:42:41.838Z,4.00
2018-05-17T00:43:47.346Z,4.00
2018-05-17T00:44:52.863Z,4.00
2018-05-17T00:45:58.375Z,4.00
2018-05-17T00:47:03.897Z,4.00
2018-05-17T00:48:09.400Z,4.00
2018-05-17T00:49:14.910Z,4.00
2018-05-17T00:50:20.425Z,4.00
2018-05-17T00:51:25.942Z,0.00
2018-05-17T00:52:31.450Z,4.00
2018-05-17T00:53:36.965Z,0.00
2018-05-17T00:54:42.475Z,4.00
2018-05-17T00:55:47.986Z,4.00
2018-05-17T00:56:53.514Z,4.00
2018-05-17T00:57:59.024Z,4.00
2018-05-17T00:59:04.525Z,4.00
2018-05-17T01:00:10.089Z,4.00
2018-05-17T01:01:15.549Z,4.00
2018-05-17T01:02:21.080Z,4.00
2018-05-17T01:03:26.586Z,4.00
2018-05-17T01:04:32.088Z,4.00
2018-05-17T01:05:37.612Z,4.00
2018-05-17T01:06:43.115Z,4.00
2018-05-17T01:07:48.632Z,4.00
2018-05-17T01:08:54.145Z,4.00
2018-05-17T01:09:59.649Z,4.00
2018-05-17T01:11:05.165Z,4.00
2018-05-17T01:12:10.758Z,4.00
2018-05-17T01:13:16.188Z,4.00
2018-05-17T01:14:21.708Z,4.00
2018-05-17T01:15:27.217Z,0.00
2018-05-17T01:16:32.726Z,0.00
2018-05-17T01:17:38.243Z,0.00
2018-05-17T01:18:43.753Z,0.00
2018-05-17T01:19:49.262Z,0.00
2018-05-17T01:20:54.782Z,0.00
2018-05-17T01:22:00.290Z,4.00
2018-05-17T01:23:05.805Z,0.00
2018-05-17T01:24:11.323Z,0.00
2018-05-17T01:25:16.828Z,0.00
2018-05-17T01:26:22.346Z,0.00
2018-05-17T01:27:27.851Z,4.00
2018-05-17T01:28:33.366Z,0.00
2018-05-17T01:29:38.880Z,4.00
2018-05-17T01:30:44.393Z,0.00
2018-05-17T01:31:49.904Z,4.00
2018-05-17T01:32:55.415Z,0.00
2018-05-17T01:34:00.927Z,4.00
2018-05-17T01:35:06.481Z,4.00
2018-05-17T01:36:12.039Z,4.00
2018-05-17T01:37:17.465Z,0.00
2018-05-17T01:38:22.976Z,0.00
2018-05-17T01:39:28.493Z,0.00
2018-05-17T01:40:34.004Z,4.00
2018-05-17T01:41:39.513Z,4.00
2018-05-17T01:42:45.027Z,4.00
2018-05-17T01:43:50.540Z,4.00
2018-05-17T01:44:56.061Z,4.00
2018-05-17T01:46:01.562Z,4.00
2018-05-17T01:47:07.080Z,0.00
2018-05-17T01:48:12.602Z,4.00
2018-05-17T01:49:18.103Z,0.00
2018-05-17T01:50:23.614Z,0.00
2018-05-17T01:51:29.133Z,0.00
2018-05-17T01:52:34.639Z,4.00
2018-05-17T01:53:40.225Z,4.00
2018-05-17T01:54:45.667Z,4.00
2018-05-17T01:55:51.174Z,0.00
2018-05-17T01:56:56.689Z,0.00
2018-05-17T01:58:02.203Z,4.00
2018-05-17T01:59:07.712Z,4.00
2018-05-17T02:00:13.317Z,0.00
2018-05-17T02:01:18.751Z,4.00
2018-05-17T02:02:24.258Z,0.00
2018-05-17T02:03:29.764Z,4.00
2018-05-17T02:04:35.285Z,0.00
2018-05-17T02:05:40.927Z,0.00
2018-05-17T02:06:46.301Z,0.00
2018-05-17T02:07:51.874Z,0.00
2018-05-17T02:08:57.366Z,4.00
2018-05-17T02:10:02.838Z,4.00
2018-05-17T02:11:08.408Z,0.00
2018-05-17T02:12:13.867Z,4.00
2018-05-17T02:13:19.376Z,0.00
2018-05-17T02:14:24.888Z,0.00
2018-05-17T02:15:30.402Z,0.00
2018-05-17T02:16:35.927Z,0.00
2018-05-17T02:17:41.431Z,0.00
2018-05-17T02:18:46.947Z,0.00
2018-05-17T02:19:52.453Z,0.00
2018-05-17T02:20:57.978Z,0.00
2018-05-17T02:22:03.476Z,4.00
2018-05-17T02:23:08.987Z,4.00
2018-05-17T02:24:14.501Z,0.00
2018-05-17T02:25:20.018Z,0.00
2018-05-17T02:26:25.524Z,0.00
2018-05-17T02:27:31.038Z,4.00
2018-05-17T02:28:36.550Z,4.00
2018-05-17T02:29:42.064Z,0.00
2018-05-17T02:30:47.580Z,0.00
2018-05-17T02:31:53.090Z,4.00
2018-05-17T02:32:58.606Z,4.00
2018-05-17T02:34:04.119Z,4.00
2018-05-17T02:35:09.630Z,4.00
2018-05-17T02:36:15.143Z,4.00
2018-05-17T02:37:20.658Z,0.00
2018-05-17T02:38:26.167Z,0.00
2018-05-17T02:39:31.680Z,4.00
2018-05-17T02:40:37.208Z,0.00
2018-05-17T02:41:42.729Z,0.00
2018-05-17T02:42:48.224Z,0.00
2018-05-17T02:43:53.753Z,4.00
2018-05-17T02:44:59.239Z,4.00
2018-05-17T02:46:04.849Z,4.00
2018-05-17T02:47:10.269Z,4.00
2018-05-17T02:48:15.780Z,4.00
2018-05-17T02:49:21.354Z,4.00
2018-05-17T02:50:26.807Z,8.00
2018-05-17T02:51:32.320Z,4.00
2018-05-17T02:52:37.827Z,4.00
2018-05-17T02:53:43.345Z,4.00
2018-05-17T02:54:48.853Z,4.00
2018-05-17T02:55:54.362Z,0.00
2018-05-17T02:56:59.881Z,0.00
2018-05-17T02:58:05.392Z,4.00
2018-05-17T02:59:10.902Z,0.00
2018-05-17T03:00:16.414Z,4.00
2018-05-17T03:01:21.930Z,0.00
2018-05-17T03:02:27.442Z,0.00
2018-05-17T03:03:32.947Z,4.00
2018-05-17T03:04:38.496Z,4.00
2018-05-17T03:05:43.973Z,4.00
2018-05-17T03:06:49.486Z,4.00
2018-05-17T03:07:54.998Z,0.00
2018-05-17T03:09:00.515Z,0.00
2018-05-17T03:10:06.022Z,4.00
2018-05-17T03:11:11.534Z,0.00
2018-05-17T03:12:17.052Z,4.00
2018-05-17T03:13:22.560Z,8.00
2018-05-17T03:14:28.070Z,0.00
2018-05-17T03:15:33.610Z,0.00
2018-05-17T03:16:39.119Z,4.00
2018-05-17T03:17:44.607Z,4.00
2018-05-17T03:18:50.256Z,8.00
2018-05-17T03:19:55.630Z,4.00
2018-05-17T03:21:01.145Z,4.00
2018-05-17T03:22:06.764Z,0.00
2018-05-17T03:23:12.168Z,8.00
2018-05-17T03:24:17.736Z,8.00
2018-05-17T03:25:23.190Z,4.00
2018-05-17T03:26:28.704Z,4.00
2018-05-17T03:27:34.215Z,4.00
2018-05-17T03:28:39.739Z,4.00
2018-05-17T03:29:45.263Z,12.00
2018-05-17T03:30:50.755Z,8.00
2018-05-17T03:31:56.268Z,12.00
2018-05-17T03:33:01.778Z,8.00
2018-05-17T03:34:07.301Z,8.00
2018-05-17T03:35:12.802Z,8.00
2018-05-17T03:36:18.318Z,8.00
2018-05-17T03:37:23.826Z,8.00
2018-05-17T03:38:29.337Z,12.00
2018-05-17T03:39:34.848Z,12.00
2018-05-17T03:40:40.365Z,12.00
2018-05-17T03:41:45.878Z,12.00
2018-05-17T03:42:51.385Z,16.00
2018-05-17T03:43:56.896Z,12.00
2018-05-17T03:45:02.419Z,12.00
2018-05-17T03:46:07.919Z,16.00
2018-05-17T03:47:13.436Z,16.00
2018-05-17T03:48:18.947Z,16.00
2018-05-17T03:49:24.456Z,20.00
2018-05-17T03:50:29.983Z,20.00
2018-05-17T03:51:35.481Z,20.00
2018-05-17T03:52:40.993Z,20.00
2018-05-17T03:53:46.512Z,16.00
2018-05-17T03:54:52.021Z,16.00
2018-05-17T03:55:57.538Z,24.00
2018-05-17T03:57:03.048Z,28.00
2018-05-17T03:58:08.553Z,32.00
2018-05-17T03:59:14.063Z,36.00
2018-05-17T04:00:19.602Z,36.00
2018-05-17T04:01:25.125Z,40.00
2018-05-17T04:02:30.637Z,44.00
2018-05-17T04:03:36.120Z,40.00
2018-05-17T04:04:41.699Z,40.00
2018-05-17T04:05:47.138Z,40.00
2018-05-17T04:06:52.653Z,40.00
2018-05-17T04:07:58.167Z,44.00
2018-05-17T04:09:03.673Z,44.00
2018-05-17T04:10:09.191Z,52.00
2018-05-17T04:11:14.693Z,52.00
2018-05-17T04:12:20.209Z,52.00
2018-05-17T04:13:25.723Z,56.00
2018-05-17T04:14:31.228Z,56.00
2018-05-17T04:15:36.749Z,56.00
2018-05-17T04:16:42.261Z,56.00
2018-05-17T04:17:47.773Z,48.00
2018-05-17T04:18:53.279Z,48.00
2018-05-17T04:19:58.785Z,52.00
2018-05-17T04:21:04.303Z,52.00
2018-05-17T04:22:09.814Z,56.00
2018-05-17T04:23:15.322Z,56.00
2018-05-17T04:24:20.832Z,64.00
2018-05-17T04:25:26.353Z,72.00
2018-05-17T04:26:31.860Z,76.00
2018-05-17T04:27:37.367Z,76.00
2018-05-17T04:28:42.882Z,88.00
2018-05-17T04:29:48.396Z,92.00
2018-05-17T04:30:53.905Z,92.00
2018-05-17T04:31:59.415Z,84.00
2018-05-17T04:33:04.932Z,84.00
2018-05-17T04:34:10.446Z,76.00
2018-05-17T04:35:16.098Z,84.00
2018-05-17T04:36:21.466Z,88.00
2018-05-17T04:37:27.015Z,80.00
2018-05-17T04:38:32.488Z,92.00
2018-05-17T04:39:38.026Z,112.00
2018-05-17T04:40:43.525Z,128.00
2018-05-17T04:41:49.034Z,132.00
2018-05-17T04:42:54.536Z,136.00
2018-05-17T04:44:00.050Z,148.00
2018-05-17T04:45:05.558Z,156.00
2018-05-17T04:46:11.077Z,156.00
2018-05-17T04:47:16.587Z,152.00
2018-05-17T04:48:22.095Z,156.00
2018-05-17T04:49:27.604Z,172.00
2018-05-17T04:50:33.118Z,164.00
2018-05-17T04:51:38.632Z,144.00
2018-05-17T04:52:44.149Z,124.00
2018-05-17T04:53:49.663Z,112.00
2018-05-17T04:54:55.169Z,96.00
2018-05-17T04:56:00.683Z,100.00
2018-05-17T04:57:06.185Z,104.00
2018-05-17T04:58:11.710Z,108.00
2018-05-17T04:59:17.211Z,104.00
2018-05-17T05:00:22.725Z,96.00
2018-05-17T05:01:28.234Z,108.00
2018-05-17T05:02:33.775Z,112.00
2018-05-17T05:03:39.258Z,100.00
2018-05-17T05:04:44.771Z,84.00
2018-05-17T05:05:50.285Z,88.00
2018-05-17T05:06:55.803Z,124.00
2018-05-17T05:08:01.306Z,136.00
2018-05-17T05:09:06.820Z,168.00
2018-05-17T05:10:12.336Z,192.00
2018-05-17T05:11:17.843Z,188.00
2018-05-17T05:12:23.366Z,188.00
2018-05-17T05:13:28.869Z,212.00
2018-05-17T05:14:34.378Z,220.00
2018-05-17T05:15:40.028Z,232.00
2018-05-17T05:16:45.411Z,232.00
2018-05-17T05:17:50.999Z,208.00
2018-05-17T05:18:56.433Z,216.00
2018-05-17T05:20:02.057Z,212.00
2018-05-17T05:21:07.457Z,204.00
2018-05-17T05:22:12.964Z,192.00
2018-05-17T05:23:18.545Z,196.00
2018-05-17T05:24:23.989Z,204.00
2018-05-17T05:25:29.508Z,272.00
2018-05-17T05:26:35.021Z,236.00
2018-05-17T05:27:40.522Z,212.00
2018-05-17T05:28:46.036Z,232.00
2018-05-17T05:29:51.548Z,236.00
2018-05-17T05:30:57.062Z,216.00
2018-05-17T05:32:02.581Z,208.00
2018-05-17T05:33:08.109Z,224.00
2018-05-17T05:34:13.597Z,208.00
2018-05-17T05:35:19.105Z,216.00
2018-05-17T05:36:24.626Z,232.00
2018-05-17T05:37:30.212Z,248.00
2018-05-17T05:38:35.650Z,244.00
2018-05-17T05:39:41.160Z,240.00
2018-05-17T05:40:46.676Z,264.00
2018-05-17T05:41:52.189Z,304.00
2018-05-17T05:42:57.696Z,300.00
2018-05-17T05:44:03.212Z,280.00
2018-05-17T05:45:08.722Z,300.00
2018-05-17T05:46:14.233Z,328.00
2018-05-17T05:47:19.744Z,308.00
2018-05-17T05:48:25.263Z,284.00
2018-05-17T05:49:30.838Z,292.00
2018-05-17T05:50:36.284Z,308.00
2018-05-17T05:51:41.789Z,304.00
2018-05-17T05:52:47.302Z,304.00
2018-05-17T05:53:52.903Z,264.00
2018-05-17T05:54:58.328Z,256.00
2018-05-17T05:56:03.902Z,248.00
2018-05-17T05:57:09.347Z,244.00
2018-05-17T05:58:14.885Z,256.00
2018-05-17T05:59:20.380Z,276.00
2018-05-17T06:00:25.887Z,296.00
2018-05-17T06:01:31.404Z,416.00
2018-05-17T06:02:36.906Z,436.00
2018-05-17T06:03:42.424Z,420.00
2018-05-17T06:04:47.935Z,512.00
2018-05-17T06:05:53.446Z,496.00
2018-05-17T06:06:58.957Z,444.00
2018-05-17T06:08:04.466Z,428.00
2018-05-17T06:09:09.983Z,400.00
2018-05-17T06:10:15.499Z,404.00
2018-05-17T06:11:21.014Z,380.00
2018-05-17T06:12:26.519Z,372.00
2018-05-17T06:13:32.026Z,368.00
2018-05-17T06:14:37.542Z,404.00
2018-05-17T06:15:43.061Z,364.00
2018-05-17T06:16:48.566Z,328.00
2018-05-17T06:17:54.089Z,344.00
2018-05-17T06:18:59.599Z,316.00
2018-05-17T06:20:05.105Z,296.00
2018-05-17T06:21:10.622Z,296.00
2018-05-17T06:22:16.126Z,308.00
2018-05-17T06:23:21.639Z,328.00
2018-05-17T06:24:27.159Z,360.00
2018-05-17T06:25:32.665Z,356.00
2018-05-17T06:26:38.173Z,412.00
2018-05-17T06:27:43.686Z,432.00
2018-05-17T06:28:49.197Z,452.00
2018-05-17T06:29:54.708Z,432.00
2018-05-17T06:31:00.229Z,464.00
2018-05-17T06:32:05.731Z,476.00
2018-05-17T06:33:11.244Z,464.00
2018-05-17T06:34:16.764Z,460.00
2018-05-17T06:35:22.269Z,472.00
2018-05-17T06:36:27.794Z,484.00
2018-05-17T06:37:33.304Z,500.00
2018-05-17T06:38:38.808Z,472.00
2018-05-17T06:39:44.329Z,440.00
2018-05-17T06:40:49.844Z,432.00
2018-05-17T06:41:55.346Z,420.00
2018-05-17T06:43:00.858Z,408.00
2018-05-17T06:44:06.385Z,444.00
2018-05-17T06:45:11.881Z,428.00
2018-05-17T06:46:17.394Z,476.00
2018-05-17T06:47:22.912Z,520.00
2018-05-17T06:48:28.426Z,568.00
2018-05-17T06:49:33.928Z,620.00
2018-05-17T06:50:39.443Z,584.00
2018-05-17T06:51:44.951Z,636.00
2018-05-17T06:52:50.476Z,640.00
2018-05-17T06:53:55.986Z,616.00
2018-05-17T06:55:01.488Z,612.00
2018-05-17T06:56:06.999Z,584.00
2018-05-17T06:57:12.529Z,736.00
2018-05-17T06:58:18.024Z,752.00
2018-05-17T06:59:23.550Z,648.00
2018-05-17T07:00:29.073Z,644.00
2018-05-17T07:01:34.564Z,672.00
2018-05-17T07:02:40.078Z,708.00
2018-05-17T07:03:45.679Z,660.00
2018-05-17T07:04:51.125Z,616.00
2018-05-17T07:05:56.615Z,656.00
2018-05-17T07:07:02.183Z,676.00
2018-05-17T07:08:07.645Z,604.00
2018-05-17T07:09:13.150Z,520.00
2018-05-17T07:10:18.657Z,472.00
2018-05-17T07:11:24.185Z,348.00
2018-05-17T07:12:29.697Z,300.00
2018-05-17T07:13:35.196Z,296.00
2018-05-17T07:14:40.718Z,288.00
2018-05-17T07:15:46.225Z,308.00
2018-05-17T07:16:51.744Z,332.00
2018-05-17T07:17:57.332Z,348.00
2018-05-17T07:19:02.771Z,356.00
2018-05-17T07:20:08.277Z,380.00
2018-05-17T07:21:13.790Z,496.00
2018-05-17T07:22:19.309Z,468.00
2018-05-17T07:23:24.822Z,544.00
2018-05-17T07:24:30.333Z,536.00
2018-05-17T07:25:35.859Z,516.00
2018-05-17T07:26:41.345Z,512.00
2018-05-17T07:27:46.863Z,512.00
2018-05-17T07:28:52.372Z,492.00
2018-05-17T07:29:58.011Z,508.00
2018-05-17T07:31:03.396Z,512.00
2018-05-17T07:32:08.916Z,480.00
2018-05-17T07:33:14.419Z,488.00
2018-05-17T07:34:19.934Z,484.00
2018-05-17T07:35:25.449Z,508.00
2018-05-17T07:36:31.063Z,480.00
2018-05-17T07:37:36.472Z,480.00
2018-05-17T07:38:41.982Z,468.00
2018-05-17T07:39:47.494Z,468.00
2018-05-17T07:40:53.010Z,520.00
2018-05-17T07:41:58.581Z,456.00
2018-05-17T07:43:04.033Z,496.00
2018-05-17T07:44:09.558Z,524.00
2018-05-17T07:45:15.066Z,528.00
2018-05-17T07:46:20.579Z,524.00
2018-05-17T07:47:26.088Z,648.00
2018-05-17T07:48:31.600Z,588.00
2018-05-17T07:49:37.117Z,596.00
2018-05-17T07:50:42.622Z,604.00
2018-05-17T07:51:48.134Z,528.00
2018-05-17T07:52:53.647Z,616.00
2018-05-17T07:53:59.172Z,692.00
2018-05-17T07:55:04.676Z,876.00
2018-05-17T07:56:10.188Z,876.00
2018-05-17T07:57:15.701Z,852.00
2018-05-17T07:58:21.211Z,804.00
2018-05-17T07:59:26.721Z,784.00
2018-05-17T08:00:32.249Z,724.00
2018-05-17T08:01:37.757Z,692.00
2018-05-17T08:02:43.263Z,668.00
2018-05-17T08:03:48.772Z,628.00
2018-05-17T08:04:54.293Z,592.00
2018-05-17T08:05:59.808Z,652.00
2018-05-17T08:07:05.323Z,656.00
2018-05-17T08:08:10.827Z,680.00
2018-05-17T08:09:16.367Z,656.00
2018-05-17T08:10:21.854Z,644.00
2018-05-17T08:11:27.367Z,576.00
2018-05-17T08:12:32.882Z,536.00
2018-05-17T08:13:38.404Z,476.00
2018-05-17T08:14:43.905Z,440.00
2018-05-17T08:15:49.426Z,468.00
2018-05-17T08:16:54.962Z,472.00
2018-05-17T08:18:00.537Z,336.00
2018-05-17T08:19:05.957Z,332.00
2018-05-17T08:20:11.521Z,356.00
2018-05-17T08:21:17.002Z,360.00
2018-05-17T08:22:22.505Z,404.00
2018-05-17T08:23:28.020Z,696.00
2018-05-17T08:24:33.535Z,772.00
2018-05-17T08:25:39.047Z,808.00
2018-05-17T08:26:44.559Z,680.00
2018-05-17T08:27:50.071Z,640.00
2018-05-17T08:28:55.653Z,604.00
2018-05-17T08:30:01.094Z,664.00
2018-05-17T08:31:06.607Z,436.00
2018-05-17T08:32:12.116Z,372.00
2018-05-17T08:33:17.631Z,576.00
2018-05-17T08:34:23.144Z,556.00
2018-05-17T08:35:28.659Z,536.00
2018-05-17T08:36:34.331Z,560.00
2018-05-17T08:37:39.684Z,608.00
2018-05-17T08:38:45.201Z,640.00
2018-05-17T08:39:50.714Z,608.00
2018-05-17T08:40:56.223Z,564.00
2018-05-17T08:42:01.738Z,548.00
2018-05-17T08:43:07.253Z,560.00
2018-05-17T08:44:12.771Z,556.00
2018-05-17T08:45:18.274Z,572.00
2018-05-17T08:46:23.793Z,560.00
2018-05-17T08:47:29.307Z,616.00
2018-05-17T08:48:34.818Z,712.00
2018-05-17T08:49:40.352Z,812.00
2018-05-17T08:50:45.852Z,744.00
2018-05-17T08:51:51.357Z,692.00
2018-05-17T08:52:56.978Z,820.00
2018-05-17T08:54:02.384Z,868.00
2018-05-17T08:55:08.020Z,896.00
2018-05-17T08:56:13.425Z,736.00
2018-05-17T08:57:18.923Z,740.00
2018-05-17T08:58:24.447Z,856.00
2018-05-17T08:59:29.952Z,864.00
2018-05-17T09:00:35.471Z,1004.00
2018-05-17T09:01:40.982Z,920.00
2018-05-17T09:02:46.497Z,968.00
2018-05-17T09:03:52.005Z,1072.00
2018-05-17T09:04:57.522Z,1216.00
2018-05-17T09:06:03.043Z,952.00
2018-05-17T09:07:08.546Z,848.00
2018-05-17T09:08:14.060Z,632.00
2018-05-17T09:09:19.569Z,492.00
2018-05-17T09:10:25.082Z,472.00
2018-05-17T09:11:30.599Z,456.00
2018-05-17T09:12:36.120Z,432.00
2018-05-17T09:13:41.708Z,428.00
2018-05-17T09:14:47.137Z,388.00
2018-05-17T09:15:52.652Z,572.00
2018-05-17T09:16:58.168Z,580.00
2018-05-17T09:18:03.692Z,628.00
2018-05-17T09:19:09.190Z,716.00
2018-05-17T09:20:14.807Z,816.00
2018-05-17T09:21:20.223Z,916.00
2018-05-17T09:22:25.733Z,952.00
2018-05-17T09:23:31.386Z,992.00
2018-05-17T09:24:36.776Z,1068.00
2018-05-17T09:25:42.283Z,1092.00
2018-05-17T09:26:47.793Z,956.00
2018-05-17T09:27:53.301Z,1024.00
2018-05-17T09:28:58.829Z,1104.00
2018-05-17T09:30:04.329Z,856.00
2018-05-17T09:31:09.851Z,700.00
2018-05-17T09:32:15.366Z,748.00
2018-05-17T09:33:21.121Z,520.00
2018-05-17T09:34:26.386Z,488.00
2018-05-17T09:35:31.904Z,524.00
2018-05-17T09:36:37.418Z,388.00
2018-05-17T09:37:42.929Z,360.00
2018-05-17T09:38:48.444Z,396.00
2018-05-17T09:39:53.957Z,564.00
2018-05-17T09:40:59.479Z,636.00
2018-05-17T09:42:04.992Z,608.00
2018-05-17T09:43:10.501Z,576.00
2018-05-17T09:44:16.020Z,588.00
2018-05-17T09:45:21.724Z,572.00
2018-05-17T09:46:27.046Z,592.00
2018-05-17T09:47:32.628Z,632.00
2018-05-17T09:48:38.077Z,640.00
2018-05-17T09:49:43.591Z,672.00
2018-05-17T09:50:49.104Z,656.00
2018-05-17T09:51:54.618Z,672.00
2018-05-17T09:53:00.137Z,668.00
2018-05-17T09:54:05.642Z,600.00
2018-05-17T09:55:11.169Z,596.00
2018-05-17T09:56:16.674Z,612.00
2018-05-17T09:57:22.184Z,616.00
2018-05-17T09:58:27.701Z,484.00
2018-05-17T09:59:33.215Z,736.00
2018-05-17T10:00:38.819Z,680.00
2018-05-17T10:01:44.240Z,864.00
2018-05-17T10:02:49.760Z,964.00
2018-05-17T10:03:55.359Z,772.00
2018-05-17T10:05:00.785Z,808.00
2018-05-17T10:06:06.307Z,928.00
2018-05-17T10:07:11.816Z,804.00
2018-05-17T10:08:17.329Z,768.00
2018-05-17T10:09:22.843Z,808.00
2018-05-17T10:10:28.356Z,772.00
2018-05-17T10:11:33.875Z,848.00
2018-05-17T10:12:39.409Z,696.00
2018-05-17T10:13:44.907Z,780.00
2018-05-17T10:14:50.416Z,792.00
2018-05-17T10:15:55.933Z,1064.00
2018-05-17T10:17:01.457Z,1028.00
2018-05-17T10:18:06.974Z,820.00
2018-05-17T10:19:12.488Z,816.00
2018-05-17T10:20:17.997Z,768.00
2018-05-17T10:21:23.519Z,580.00
2018-05-17T10:22:29.023Z,436.00
2018-05-17T10:23:34.538Z,780.00
2018-05-17T10:24:40.058Z,700.00
2018-05-17T10:25:45.575Z,728.00
2018-05-17T10:26:51.088Z,820.00
2018-05-17T10:27:56.597Z,852.00
2018-05-17T10:29:02.123Z,780.00
2018-05-17T10:30:07.631Z,768.00
2018-05-17T10:31:13.154Z,832.00
2018-05-17T10:32:18.657Z,780.00
2018-05-17T10:33:24.214Z,800.00
2018-05-17T10:34:29.701Z,808.00
2018-05-17T10:35:35.206Z,788.00
2018-05-17T10:36:40.720Z,804.00
2018-05-17T10:37:46.239Z,812.00
2018-05-17T10:38:51.755Z,840.00
2018-05-17T10:39:57.267Z,852.00
2018-05-17T10:41:02.780Z,860.00
2018-05-17T10:42:08.370Z,792.00
2018-05-17T10:43:13.814Z,784.00
2018-05-17T10:44:19.325Z,788.00
2018-05-17T10:45:24.843Z,788.00
2018-05-17T10:46:30.363Z,776.00
2018-05-17T10:47:35.877Z,792.00
2018-05-17T10:48:41.396Z,792.00
2018-05-17T10:49:46.907Z,796.00
2018-05-17T10:50:52.437Z,796.00
2018-05-17T10:51:57.939Z,800.00
2018-05-17T10:53:03.450Z,788.00
2018-05-17T10:54:08.971Z,820.00
2018-05-17T10:55:14.514Z,808.00
2018-05-17T10:56:20.000Z,812.00
2018-05-17T10:57:25.512Z,804.00
2018-05-17T10:58:31.024Z,808.00
2018-05-17T10:59:36.556Z,808.00
2018-05-17T11:00:42.057Z,816.00
2018-05-17T11:01:47.611Z,832.00
2018-05-17T11:02:53.097Z,828.00
2018-05-17T11:03:58.610Z,840.00
2018-05-17T11:05:04.124Z,832.00
2018-05-17T11:06:09.636Z,812.00
2018-05-17T11:07:15.155Z,860.00
2018-05-17T11:08:20.683Z,856.00
2018-05-17T11:09:26.188Z,868.00
2018-05-17T11:10:31.699Z,872.00
2018-05-17T11:11:37.216Z,872.00
2018-05-17T11:12:42.735Z,856.00
2018-05-17T11:13:48.247Z,876.00
2018-05-17T11:14:53.773Z,872.00
2018-05-17T11:15:59.285Z,892.00
2018-05-17T11:17:04.798Z,860.00
2018-05-17T11:18:10.316Z,892.00
2018-05-17T11:19:15.829Z,876.00
2018-05-17T11:20:21.345Z,880.00
2018-05-17T11:21:26.874Z,564.00
2018-05-17T11:22:32.376Z,664.00
2018-05-17T11:23:37.888Z,664.00
2018-05-17T11:24:43.421Z,740.00
2018-05-17T11:25:49.003Z,728.00
2018-05-17T11:26:54.438Z,876.00
2018-05-17T11:27:59.960Z,876.00
2018-05-17T11:29:05.628Z,884.00
2018-05-17T11:30:10.988Z,880.00
2018-05-17T11:31:16.507Z,896.00
2018-05-17T11:32:22.069Z,900.00
2018-05-17T11:33:27.555Z,896.00
2018-05-17T11:34:33.070Z,888.00
2018-05-17T11:35:38.578Z,860.00
2018-05-17T11:36:44.084Z,812.00
2018-05-17T11:37:49.603Z,892.00
2018-05-17T11:38:55.116Z,872.00
2018-05-17T11:40:00.641Z,920.00
2018-05-17T11:41:06.146Z,920.00
2018-05-17T11:42:11.671Z,932.00
2018-05-17T11:43:17.183Z,716.00
2018-05-17T11:44:22.699Z,904.00
2018-05-17T11:45:28.212Z,912.00
2018-05-17T11:46:33.736Z,932.00
2018-05-17T11:47:39.262Z,940.00
2018-05-17T11:48:44.766Z,940.00
2018-05-17T11:49:50.302Z,912.00
2018-05-17T11:50:55.796Z,916.00
2018-05-17T11:52:01.317Z,920.00
2018-05-17T11:53:06.835Z,920.00
2018-05-17T11:54:12.347Z,912.00
2018-05-17T11:55:17.860Z,916.00
2018-05-17T11:56:23.389Z,916.00
2018-05-17T11:57:28.902Z,924.00
2018-05-17T11:58:34.415Z,924.00
2018-05-17T11:59:39.925Z,892.00
2018-05-17T12:00:45.453Z,912.00
2018-05-17T12:01:51.060Z,916.00
2018-05-17T12:02:56.478Z,932.00
2018-05-17T12:04:01.995Z,928.00
2018-05-17T12:05:07.525Z,924.00
2018-05-17T12:06:13.028Z,916.00
2018-05-17T12:07:18.683Z,912.00
2018-05-17T12:08:24.075Z,924.00
2018-05-17T12:09:29.582Z,928.00
2018-05-17T12:10:35.094Z,928.00
2018-05-17T12:11:40.613Z,924.00
2018-05-17T12:12:46.126Z,908.00
2018-05-17T12:13:51.651Z,916.00
2018-05-17T12:14:57.169Z,936.00
2018-05-17T12:16:02.676Z,940.00
2018-05-17T12:17:08.201Z,948.00
2018-05-17T12:18:13.724Z,952.00
2018-05-17T12:19:19.233Z,944.00
2018-05-17T12:20:24.742Z,936.00
2018-05-17T12:21:30.262Z,948.00
2018-05-17T12:22:35.776Z,948.00
2018-05-17T12:23:41.305Z,804.00
2018-05-17T12:24:46.817Z,816.00
2018-05-17T12:25:52.335Z,808.00
2018-05-17T12:26:57.845Z,812.00
2018-05-17T12:28:03.364Z,820.00
2018-05-17T12:29:08.883Z,820.00
2018-05-17T12:30:14.416Z,824.00
2018-05-17T12:31:19.922Z,820.00
2018-05-17T12:32:25.448Z,820.00
2018-05-17T12:33:30.945Z,820.00
2018-05-17T12:34:36.480Z,820.00
2018-05-17T12:35:41.989Z,824.00
2018-05-17T12:36:47.496Z,804.00
2018-05-17T12:37:53.017Z,804.00
2018-05-17T12:38:58.531Z,808.00
2018-05-17T12:40:04.051Z,808.00
2018-05-17T12:41:09.566Z,796.00
2018-05-17T12:42:15.085Z,788.00
2018-05-17T12:43:20.598Z,768.00
2018-05-17T12:44:26.119Z,780.00
2018-05-17T12:45:31.645Z,784.00
2018-05-17T12:46:37.157Z,788.00
2018-05-17T12:47:42.671Z,768.00
2018-05-17T12:48:48.191Z,780.00
2018-05-17T12:49:53.712Z,764.00
2018-05-17T12:50:59.252Z,752.00
2018-05-17T12:52:04.735Z,744.00
2018-05-17T12:53:10.271Z,736.00
2018-05-17T12:54:15.783Z,736.00
2018-05-17T12:55:21.304Z,736.00
2018-05-17T12:56:26.804Z,732.00
2018-05-17T12:57:32.326Z,720.00
2018-05-17T12:58:37.925Z,720.00
2018-05-17T12:59:43.363Z,696.00
2018-05-17T13:00:48.875Z,728.00
2018-05-17T13:01:54.394Z,716.00
2018-05-17T13:02:59.916Z,728.00
2018-05-17T13:04:05.438Z,712.00
2018-05-17T13:05:10.989Z,700.00
2018-05-17T13:06:16.466Z,708.00
2018-05-17T13:07:21.985Z,696.00
2018-05-17T13:08:27.500Z,712.00
2018-05-17T13:09:33.016Z,712.00
2018-05-17T13:10:38.533Z,712.00
2018-05-17T13:11:44.068Z,704.00
2018-05-17T13:12:49.568Z,696.00
2018-05-17T13:13:55.077Z,704.00
2018-05-17T13:15:00.597Z,692.00
2018-05-17T13:16:06.120Z,684.00
2018-05-17T13:17:11.638Z,672.00
2018-05-17T13:18:17.159Z,680.00
2018-05-17T13:19:22.663Z,680.00
2018-05-17T13:20:28.188Z,668.00
2018-05-17T13:21:33.705Z,680.00
2018-05-17T13:22:39.224Z,656.00
2018-05-17T13:23:44.746Z,648.00
2018-05-17T13:24:50.323Z,648.00
2018-05-17T13:25:55.784Z,632.00
2018-05-17T13:27:01.288Z,636.00
2018-05-17T13:28:06.813Z,640.00
2018-05-17T13:29:12.327Z,608.00
2018-05-17T13:30:17.869Z,628.00
2018-05-17T13:31:23.356Z,624.00
2018-05-17T13:32:28.876Z,620.00
2018-05-17T13:33:34.391Z,624.00
2018-05-17T13:34:39.917Z,632.00
2018-05-17T13:35:45.430Z,624.00
2018-05-17T13:36:50.941Z,624.00
2018-05-17T13:37:56.466Z,612.00
2018-05-17T13:39:01.983Z,612.00
2018-05-17T13:40:07.497Z,600.00
2018-05-17T13:41:13.012Z,604.00
2018-05-17T13:42:18.534Z,608.00
2018-05-17T13:43:24.048Z,608.00
2018-05-17T13:44:29.579Z,608.00
2018-05-17T13:45:35.088Z,604.00
2018-05-17T13:46:40.602Z,680.00
2018-05-17T13:47:46.125Z,608.00
2018-05-17T13:48:51.656Z,624.00
2018-05-17T13:49:57.155Z,596.00
2018-05-17T13:51:02.669Z,584.00
2018-05-17T13:52:08.190Z,556.00